createdAt,value
2023-01-04T00:00:31.283Z,101472.19
2023-01-04T00:05:33.587Z,101472.78
2023-01-04T00:10:35.343Z,101473.22
2023-01-04T00:15:36.860Z,101478.63
2023-01-04T00:20:38.255Z,101467.06
2023-01-04T00:25:39.705Z,101463.56
2023-01-04T00:30:41.196Z,101454.66
2023-01-04T00:35:46.387Z,101452.09
2023-01-04T00:40:47.998Z,101436.91
2023-01-04T00:45:49.634Z,101438.19
2023-01-04T00:50:51.212Z,101427.03
2023-01-04T00:55:52.563Z,101431.53
2023-01-04T01:00:54.233Z,101414.88
2023-01-04T01:05:55.570Z,101399.41
2023-01-04T01:11:06.460Z,101399.66
2023-01-04T01:16:10.992Z,101386.97
2023-01-04T01:21:15.170Z,101384.13
2023-01-04T01:26:19.311Z,101384.13
2023-01-04T01:31:23.702Z,101387.94
2023-01-04T01:36:26.293Z,101378.19
2023-01-04T01:41:30.930Z,101371.56
2023-01-04T01:46:40.249Z,101370.59
2023-01-04T01:51:42.720Z,101346.22
2023-01-04T01:56:49.329Z,101354.97
2023-01-04T02:01:50.840Z,101359.91
2023-01-04T02:06:55.618Z,101346.94
2023-01-04T02:11:56.969Z,101341.25
2023-01-04T02:17:25.739Z,101334.75
2023-01-04T02:22:54.118Z,101331.31
2023-01-04T02:28:00.119Z,101326.19
2023-01-04T02:33:10.558Z,101321.00
2023-01-04T02:38:23.894Z,101306.59
2023-01-04T02:43:57.656Z,101293.97
2023-01-04T02:49:21.244Z,101299.31
2023-01-04T02:54:30.280Z,101300.19
2023-01-04T02:59:37.541Z,101283.81
2023-01-04T03:05:13.311Z,101289.34
2023-01-04T03:10:35.834Z,101273.97
2023-01-04T03:15:40.979Z,101264.25
2023-01-04T03:20:46.049Z,101272.56
2023-01-04T03:26:13.125Z,101265.34
2023-01-04T03:31:43.444Z,101249.88
2023-01-04T03:36:58.629Z,101238.56
2023-01-04T03:42:24.539Z,101236.44
2023-01-04T03:48:04.444Z,101229.22
2023-01-04T03:53:07.862Z,101216.97
2023-01-04T03:58:09.566Z,101199.75
2023-01-04T04:03:11.019Z,101197.06
2023-01-04T04:08:30.703Z,101186.06
2023-01-04T04:13:32.019Z,101168.88
2023-01-04T04:18:33.369Z,101167.00
2023-01-04T04:23:34.729Z,101166.84
2023-01-04T04:28:36.186Z,101147.28
2023-01-04T04:33:37.636Z,101145.81
2023-01-04T04:38:38.979Z,101133.03
2023-01-04T04:43:40.363Z,101136.53
2023-01-04T04:48:41.724Z,101124.28
2023-01-04T04:53:43.272Z,101120.63
2023-01-04T04:58:44.615Z,101103.28
2023-01-04T05:03:46.369Z,101100.91
2023-01-04T05:08:47.841Z,101087.53
2023-01-04T05:13:49.173Z,101087.53
2023-01-04T05:18:50.510Z,101072.31
2023-01-04T05:23:51.872Z,101079.34
2023-01-04T05:28:54.111Z,101079.34
2023-01-04T05:33:55.695Z,101060.25
2023-01-04T05:38:57.059Z,101057.44
2023-01-04T05:43:58.430Z,101048.84
2023-01-04T05:48:59.835Z,101046.44
2023-01-04T05:54:01.159Z,101048.84
2023-01-04T05:59:02.504Z,101048.84
2023-01-04T06:04:03.931Z,101040.97
2023-01-04T06:09:05.310Z,101031.81
2023-01-04T06:14:06.771Z,101040.28
2023-01-04T06:19:08.144Z,101046.75
2023-01-04T06:24:11.357Z,101052.09
2023-01-04T06:29:13.178Z,101028.44
2023-01-04T06:34:15.046Z,101026.47
2023-01-04T06:39:16.374Z,100996.06
2023-01-04T06:44:17.672Z,101005.75
2023-01-04T06:49:19.001Z,100991.81
2023-01-04T06:54:20.342Z,100963.53
2023-01-04T06:59:21.681Z,100968.28
2023-01-04T07:04:23.160Z,100974.66
2023-01-04T07:09:24.563Z,100991.09
2023-01-04T07:14:25.917Z,100993.66
2023-01-04T07:19:27.285Z,100977.75
2023-01-04T07:24:30.663Z,100973.97
2023-01-04T07:29:32.400Z,100986.63
2023-01-04T07:34:33.751Z,100983.94
2023-01-04T07:39:35.468Z,100974.66
2023-01-04T07:44:36.963Z,100963.09
2023-01-04T07:49:38.315Z,100964.38
2023-01-04T07:54:39.712Z,100991.56
2023-01-04T07:59:41.154Z,100991.97
2023-01-04T08:04:42.691Z,100993.09
2023-01-04T08:09:44.123Z,101005.75
2023-01-04T08:14:45.463Z,100997.00
2023-01-04T08:19:46.895Z,100973.16
2023-01-04T08:24:48.304Z,100986.97
2023-01-04T08:29:49.663Z,100976.38
2023-01-04T08:34:51.093Z,100974.63
2023-01-04T08:39:52.397Z,100991.31
2023-01-04T08:44:58.934Z,100970.13
2023-01-04T08:50:06.560Z,100979.81
2023-01-04T08:55:13.893Z,100949.75
2023-01-04T09:00:18.051Z,100961.56
2023-01-04T09:05:22.964Z,100967.16
2023-01-04T09:10:24.718Z,100970.41
2023-01-04T09:15:26.065Z,100955.38
2023-01-04T09:20:27.638Z,100954.13
2023-01-04T09:25:28.965Z,100938.16
2023-01-04T09:30:31.679Z,100939.00
2023-01-04T09:35:33.518Z,100945.06
2023-01-04T09:40:50.919Z,100938.94
2023-01-04T09:45:57.271Z,100953.88
2023-01-04T09:51:04.470Z,100951.44
2023-01-04T09:56:13.351Z,100956.66
2023-01-04T10:01:20.589Z,100946.78
2023-01-04T10:06:22.052Z,100951.28
2023-01-04T10:11:48.327Z,100941.78
2023-01-04T10:17:14.950Z,100936.41
2023-01-04T10:22:45.245Z,100927.44
2023-01-04T10:28:11.926Z,100915.41
2023-01-04T10:33:38.741Z,100878.44
2023-01-04T10:38:40.883Z,100884.22
2023-01-04T10:44:11.369Z,100875.06
2023-01-04T10:49:27.593Z,100889.25
2023-01-04T10:54:38.378Z,100870.81
2023-01-04T11:00:07.023Z,100872.97
2023-01-04T11:05:37.681Z,100858.38
2023-01-04T11:10:50.707Z,100854.66
2023-01-04T11:15:52.792Z,100850.66
2023-01-04T11:20:54.997Z,100855.50
2023-01-04T11:25:59.268Z,100839.06
2023-01-04T11:31:10.377Z,100833.75
2023-01-04T11:36:31.607Z,100809.44
2023-01-04T11:41:33.331Z,100815.22
2023-01-04T11:46:35.106Z,100809.84
2023-01-04T11:51:39.504Z,100806.50
2023-01-04T11:57:05.813Z,100802.16
2023-01-04T12:07:46.082Z,100783.22
2023-01-04T12:12:48.103Z,100777.00
2023-01-04T12:17:55.363Z,100770.44
2023-01-04T12:22:56.756Z,100760.88
2023-01-04T12:27:58.515Z,100767.91
2023-01-04T12:33:00.153Z,100752.78
2023-01-04T12:38:02.401Z,100737.50
2023-01-04T12:43:27.892Z,100741.50
2023-01-04T12:48:53.714Z,100735.59
2023-01-04T12:54:38.815Z,100728.41
2023-01-04T13:00:01.664Z,100708.72
2023-01-04T13:06:02.116Z,100705.03
2023-01-04T13:11:15.665Z,100699.50
2023-01-04T13:16:58.668Z,100686.38
2023-01-04T13:22:01.098Z,100677.50
2023-01-04T13:27:18.495Z,100676.66
2023-01-04T13:33:24.831Z,100659.84
2023-01-04T13:38:17.999Z,100659.66
2023-01-04T13:44:08.034Z,100647.91
2023-01-04T13:49:15.256Z,100641.66
2023-01-04T13:54:28.909Z,100646.84
2023-01-04T13:59:37.986Z,100646.16
2023-01-04T14:04:43.163Z,100638.09
2023-01-04T14:09:51.436Z,100617.72
2023-01-04T14:14:58.101Z,100618.03
2023-01-04T14:20:15.640Z,100624.72
2023-01-04T14:25:38.547Z,100623.38
2023-01-04T14:30:40.307Z,100615.44
2023-01-04T14:35:46.717Z,100621.78
2023-01-04T14:40:51.020Z,100626.19
2023-01-04T14:45:52.640Z,100615.38
2023-01-04T14:50:56.904Z,100617.72
2023-01-04T14:55:58.694Z,100625.59
2023-01-04T15:01:02.617Z,100605.03
2023-01-04T15:06:05.943Z,100609.72
2023-01-04T15:11:10.000Z,100617.44
2023-01-04T15:16:14.592Z,100621.13
2023-01-04T15:21:16.713Z,100617.28
2023-01-04T15:26:22.947Z,100610.50
2023-01-04T15:31:30.210Z,100590.13
2023-01-04T15:36:41.635Z,100592.53
2023-01-04T15:42:02.251Z,100596.72
2023-01-04T15:47:04.008Z,100589.66
2023-01-04T15:52:06.121Z,100566.28
2023-01-04T15:57:08.027Z,100596.41
2023-01-04T16:02:11.649Z,100592.72
2023-01-04T16:07:13.257Z,100575.91
2023-01-04T16:12:33.371Z,100569.84
2023-01-04T16:17:34.983Z,100559.38
2023-01-04T16:22:36.746Z,100561.41
2023-01-04T16:27:41.757Z,100558.53
2023-01-04T16:32:43.998Z,100544.41
2023-01-04T16:37:46.960Z,100534.19
2023-01-04T16:42:51.281Z,100552.63
2023-01-04T16:47:53.762Z,100557.16
2023-01-04T16:52:55.253Z,100557.16
2023-01-04T16:57:57.257Z,100547.53
2023-01-04T17:02:58.938Z,100541.44
2023-01-04T17:08:00.423Z,100556.88
2023-01-04T17:13:01.984Z,100559.22
2023-01-04T17:18:03.668Z,100555.81
2023-01-04T17:23:05.446Z,100552.53
2023-01-04T17:28:06.959Z,100556.06
2023-01-04T17:33:08.555Z,100534.69
2023-01-04T17:38:10.047Z,100528.38
2023-01-04T17:43:11.727Z,100533.50
2023-01-04T17:48:13.349Z,100527.72
2023-01-04T17:53:14.878Z,100535.34
2023-01-04T17:58:19.935Z,100532.94
2023-01-04T18:03:25.228Z,100530.72
2023-01-04T18:08:26.803Z,100526.16
2023-01-04T18:13:28.281Z,100522.91
2023-01-04T18:18:30.036Z,100518.50
2023-01-04T18:23:31.441Z,100521.75
2023-01-04T18:28:34.440Z,100511.88
2023-01-04T18:33:35.899Z,100517.78
2023-01-04T18:38:38.188Z,100512.78
2023-01-04T18:43:45.667Z,100519.72
2023-01-04T18:48:59.933Z,100512.19
2023-01-04T18:54:01.386Z,100532.09
2023-01-04T18:59:02.802Z,100509.06
2023-01-04T19:04:04.701Z,100512.91
2023-01-04T19:09:06.964Z,100526.88
2023-01-04T19:14:08.777Z,100526.03
2023-01-04T19:19:10.579Z,100529.47
2023-01-04T19:24:12.355Z,100514.97
2023-01-04T19:29:13.737Z,100519.44
2023-01-04T19:34:15.196Z,100525.66
2023-01-04T19:39:16.639Z,100524.75
2023-01-04T19:44:18.035Z,100508.88
2023-01-04T19:49:19.405Z,100509.03
2023-01-04T19:54:25.568Z,100521.50
2023-01-04T19:59:27.302Z,100531.91
2023-01-04T20:04:29.660Z,100526.53
2023-01-04T20:09:34.507Z,100546.50
2023-01-04T20:14:36.452Z,100534.44
2023-01-04T20:19:38.300Z,100510.44
2023-01-04T20:24:40.171Z,100536.56
2023-01-04T20:29:41.964Z,100568.94
2023-01-04T20:34:43.759Z,100568.09
2023-01-04T20:39:45.721Z,100562.22
2023-01-04T20:44:47.488Z,100561.88
2023-01-04T20:49:49.386Z,100530.22
2023-01-04T20:54:51.197Z,100554.16
2023-01-04T20:59:52.746Z,100519.97
2023-01-04T21:04:54.528Z,100537.44
2023-01-04T21:09:56.114Z,100520.41
2023-01-04T21:14:59.905Z,100520.72
2023-01-04T21:20:01.599Z,100515.34
2023-01-04T21:25:03.345Z,100523.59
2023-01-04T21:30:05.713Z,100517.66
2023-01-04T21:35:08.035Z,100510.44
2023-01-04T21:40:10.396Z,100506.38
2023-01-04T21:45:11.948Z,100499.41
2023-01-04T21:50:17.179Z,100501.69
2023-01-04T21:55:29.406Z,100497.81
2023-01-04T22:00:35.694Z,100491.41
2023-01-04T22:05:43.408Z,100489.84
2023-01-04T22:10:55.409Z,100490.97
2023-01-04T22:15:57.153Z,100479.63
2023-01-04T22:21:07.422Z,100482.72
2023-01-04T22:26:09.065Z,100486.72
2023-01-04T22:31:13.231Z,100484.28
2023-01-04T22:36:22.269Z,100493.69
2023-01-04T22:41:27.438Z,100490.06
2023-01-04T22:46:31.039Z,100485.16
2023-01-04T22:51:32.586Z,100497.41
2023-01-04T22:56:33.996Z,100497.22
2023-01-04T23:01:35.457Z,100475.78
2023-01-04T23:06:36.835Z,100473.91
2023-01-04T23:11:38.353Z,100485.59
2023-01-04T23:16:40.018Z,100481.72
2023-01-04T23:21:42.141Z,100469.53
2023-01-04T23:26:43.938Z,100472.88
2023-01-04T23:31:45.367Z,100490.75
2023-01-04T23:36:46.799Z,100481.34
2023-01-04T23:41:48.294Z,100461.91
2023-01-04T23:47:01.081Z,100450.09
2023-01-04T23:52:04.086Z,100446.38
2023-01-04T23:57:05.551Z,100452.53
